createdAt,value
2022-12-31T00:00:38.649Z,97089.06
2022-12-31T00:01:40.562Z,97090.72
2022-12-31T00:02:42.464Z,97093.94
2022-12-31T00:03:44.831Z,97092.00
2022-12-31T00:04:46.731Z,97086.66
2022-12-31T00:05:48.616Z,97088.63
2022-12-31T00:06:50.460Z,97090.22
2022-12-31T00:07:52.555Z,97088.63
2022-12-31T00:08:55.474Z,97089.56
2022-12-31T00:09:57.283Z,97085.84
2022-12-31T00:10:59.039Z,97086.47
2022-12-31T00:12:00.932Z,97090.69
2022-12-31T00:13:02.772Z,97084.53
2022-12-31T00:14:04.697Z,97091.19
2022-12-31T00:15:07.675Z,97096.34
2022-12-31T00:16:12.448Z,97101.53
2022-12-31T00:17:14.658Z,97099.91
2022-12-31T00:18:16.525Z,97093.94
2022-12-31T00:19:18.324Z,97093.59
2022-12-31T00:20:20.180Z,97096.81
2022-12-31T00:21:22.828Z,97093.44
2022-12-31T00:22:24.766Z,97102.97
2022-12-31T00:23:26.630Z,97104.13
2022-12-31T00:24:31.279Z,97101.53
2022-12-31T00:25:34.680Z,97107.50
2022-12-31T00:26:36.584Z,97101.03
2022-12-31T00:27:38.375Z,97103.47
2022-12-31T00:28:40.857Z,97099.25
2022-12-31T00:29:42.729Z,97093.28
2022-12-31T00:30:44.661Z,97095.84
2022-12-31T00:31:46.461Z,97102.63
2022-12-31T00:32:49.698Z,97109.44
2022-12-31T00:33:51.750Z,97109.28
2022-12-31T00:34:53.611Z,97116.22
2022-12-31T00:35:55.420Z,97109.28
2022-12-31T00:36:57.305Z,97113.47
2022-12-31T00:37:59.708Z,97114.28
2022-12-31T00:39:02.295Z,97110.09
2022-12-31T00:40:04.644Z,97119.28
2022-12-31T00:41:06.823Z,97107.16
2022-12-31T00:42:08.676Z,97115.59
2022-12-31T00:43:10.605Z,97120.91
2022-12-31T00:44:13.060Z,97120.28
2022-12-31T00:45:15.087Z,97127.84
2022-12-31T00:46:17.271Z,97127.84
2022-12-31T00:47:19.216Z,97132.88
2022-12-31T00:48:21.427Z,97136.09
2022-12-31T00:49:23.321Z,97143.06
2022-12-31T00:50:25.140Z,97154.41
2022-12-31T00:51:27.924Z,97150.84
2022-12-31T00:52:29.862Z,97147.44
2022-12-31T00:53:31.696Z,97154.41
2022-12-31T00:54:34.495Z,97152.63
2022-12-31T00:55:36.307Z,97150.34
2022-12-31T00:56:38.260Z,97162.34
2022-12-31T00:57:40.130Z,97162.00
2022-12-31T00:58:42.466Z,97158.28
2022-12-31T00:59:44.231Z,97168.78
2022-12-31T01:00:46.104Z,97165.22
2022-12-31T01:01:48.285Z,97171.38
2022-12-31T01:02:50.425Z,97168.78
2022-12-31T01:03:53.473Z,97169.09
2022-12-31T01:04:55.461Z,97167.50
2022-12-31T01:05:59.414Z,97167.50
2022-12-31T01:07:01.358Z,97171.84
2022-12-31T01:08:03.259Z,97191.28
2022-12-31T01:09:05.788Z,97192.25
2022-12-31T01:10:08.702Z,97192.25
2022-12-31T01:11:22.815Z,97194.03
2022-12-31T01:12:25.508Z,97201.81
2022-12-31T01:13:27.435Z,97202.44
2022-12-31T01:14:29.262Z,97199.88
2022-12-31T01:15:38.467Z,97197.09
2022-12-31T01:16:53.324Z,97209.22
2022-12-31T01:17:55.099Z,97201.47
2022-12-31T01:18:59.172Z,97191.59
2022-12-31T01:20:01.021Z,97203.75
2022-12-31T01:21:04.260Z,97200.16
2022-12-31T01:22:06.195Z,97202.91
2022-12-31T01:23:08.979Z,97207.28
2022-12-31T01:24:11.576Z,97212.31
2022-12-31T01:25:13.413Z,97221.53
2022-12-31T01:26:16.177Z,97218.47
2022-12-31T01:27:18.050Z,97225.91
2022-12-31T01:28:19.829Z,97219.91
2022-12-31T01:29:21.636Z,97224.94
2022-12-31T01:30:23.487Z,97220.56
2022-12-31T01:31:25.490Z,97226.53
2022-12-31T01:32:27.370Z,97227.97
2022-12-31T01:33:29.199Z,97219.25
2022-12-31T01:34:31.135Z,97222.81
2022-12-31T01:35:34.447Z,97226.03
2022-12-31T01:36:37.363Z,97228.31
2022-12-31T01:37:39.270Z,97221.03
2022-12-31T01:38:41.410Z,97221.84
2022-12-31T01:39:43.299Z,97228.31
2022-12-31T01:40:45.110Z,97239.97
2022-12-31T01:41:47.839Z,97246.09
2022-12-31T01:42:59.166Z,97248.69
2022-12-31T01:44:24.025Z,97245.00
2022-12-31T01:45:25.953Z,97252.41
2022-12-31T01:46:38.339Z,97257.28
2022-12-31T01:47:43.803Z,97247.75
2022-12-31T01:48:47.992Z,97257.09
2022-12-31T01:49:57.606Z,97259.53
2022-12-31T01:50:59.923Z,97256.00
2022-12-31T01:52:07.585Z,97257.44
2022-12-31T01:53:11.124Z,97255.50
2022-12-31T01:54:14.460Z,97261.31
2022-12-31T01:55:20.588Z,97254.34
2022-12-31T01:56:23.320Z,97265.84
2022-12-31T01:57:26.272Z,97260.69
2022-12-31T01:58:30.106Z,97259.53
2022-12-31T01:59:32.669Z,97255.84
2022-12-31T02:00:34.719Z,97249.69
2022-12-31T02:01:37.301Z,97247.09
2022-12-31T02:02:39.422Z,97245.50
2022-12-31T02:03:41.600Z,97255.66
2022-12-31T02:04:43.609Z,97261.84
2022-12-31T02:06:05.739Z,97260.84
2022-12-31T02:07:08.435Z,97255.50
2022-12-31T02:08:10.764Z,97256.50
2022-12-31T02:09:13.388Z,97245.31
2022-12-31T02:10:15.214Z,97242.91
2022-12-31T02:11:25.559Z,97247.75
2022-12-31T02:12:27.386Z,97248.38
2022-12-31T02:13:29.839Z,97247.25
2022-12-31T02:14:37.130Z,97236.72
2022-12-31T02:15:42.284Z,97242.56
2022-12-31T02:16:44.097Z,97241.59
2022-12-31T02:17:45.962Z,97239.97
2022-12-31T02:18:54.039Z,97233.19
2022-12-31T02:20:08.042Z,97239.16
2022-12-31T02:21:33.174Z,97241.75
2022-12-31T02:22:35.095Z,97239.31
2022-12-31T02:23:55.806Z,97247.09
2022-12-31T02:25:16.387Z,97233.97
2022-12-31T02:26:24.064Z,97233.19
2022-12-31T02:27:31.973Z,97222.81
2022-12-31T02:28:52.556Z,97234.78
2022-12-31T02:29:57.288Z,97239.00
2022-12-31T02:31:16.762Z,97230.25
2022-12-31T02:32:24.273Z,97228.28
2022-12-31T02:33:40.955Z,97222.31
2022-12-31T02:34:52.811Z,97225.06
2022-12-31T02:35:58.287Z,97227.50
2022-12-31T02:37:03.484Z,97231.53
2022-12-31T02:38:08.198Z,97240.94
2022-12-31T02:39:10.952Z,97242.69
2022-12-31T02:40:15.292Z,97247.22
2022-12-31T02:41:37.638Z,97242.88
2022-12-31T02:42:39.526Z,97241.88
2022-12-31T02:43:48.866Z,97238.34
2022-12-31T02:44:50.737Z,97231.38
2022-12-31T02:46:15.720Z,97236.56
2022-12-31T02:47:40.924Z,97234.13
2022-12-31T02:48:49.516Z,97234.91
2022-12-31T02:49:51.296Z,97246.56
2022-12-31T02:51:22.313Z,97239.63
2022-12-31T02:52:49.570Z,97242.22
2022-12-31T02:54:11.729Z,97242.03
2022-12-31T02:55:25.269Z,97245.59
2022-12-31T02:56:27.044Z,97248.19
2022-12-31T02:57:34.951Z,97251.59
2022-12-31T02:59:08.251Z,97245.44
2022-12-31T03:00:30.123Z,97243.97
2022-12-31T03:01:55.765Z,97250.00
2022-12-31T03:02:58.960Z,97251.44
2022-12-31T03:04:19.468Z,97244.63
2022-12-31T03:05:25.374Z,97242.22
2022-12-31T03:06:27.222Z,97243.81
2022-12-31T03:07:30.856Z,97244.63
2022-12-31T03:08:52.568Z,97252.41
2022-12-31T03:09:55.042Z,97254.03
2022-12-31T03:10:57.364Z,97243.66
2022-12-31T03:12:18.090Z,97252.25
2022-12-31T03:13:20.065Z,97257.56
2022-12-31T03:14:21.957Z,97256.94
2022-12-31T03:15:33.639Z,97264.88
2022-12-31T03:16:35.509Z,97268.94
2022-12-31T03:17:37.347Z,97263.75
2022-12-31T03:18:57.817Z,97259.38
2022-12-31T03:20:18.066Z,97269.09
2022-12-31T03:21:38.249Z,97271.03
2022-12-31T03:22:41.403Z,97266.00
2022-12-31T03:23:50.343Z,97268.44
2022-12-31T03:25:10.337Z,97272.81
2022-12-31T03:26:12.703Z,97274.78
2022-12-31T03:27:14.521Z,97283.34
2022-12-31T03:28:18.249Z,97281.75
2022-12-31T03:29:20.279Z,97279.94
2022-12-31T03:30:23.027Z,97279.16
2022-12-31T03:31:24.918Z,97272.03
2022-12-31T03:32:26.770Z,97271.38
2022-12-31T03:33:36.124Z,97277.50
2022-12-31T03:34:37.956Z,97282.84
2022-12-31T03:35:41.047Z,97288.88
2022-12-31T03:36:42.872Z,97278.50
2022-12-31T03:37:44.735Z,97286.28
2022-12-31T03:38:51.190Z,97288.22
2022-12-31T03:39:54.590Z,97291.78
2022-12-31T03:40:56.671Z,97292.56
2022-12-31T03:41:58.498Z,97297.94
2022-12-31T03:43:00.425Z,97301.47
2022-12-31T03:44:02.226Z,97294.69
2022-12-31T03:45:04.481Z,97302.47
2022-12-31T03:46:06.696Z,97311.84
2022-12-31T03:47:08.591Z,97307.66
2022-12-31T03:48:11.060Z,97319.63
2022-12-31T03:49:12.896Z,97314.44
2022-12-31T03:50:16.475Z,97322.38
2022-12-31T03:51:18.312Z,97328.38
2022-12-31T03:52:20.511Z,97330.13
2022-12-31T03:53:22.511Z,97329.19
2022-12-31T03:54:24.351Z,97337.59
2022-12-31T03:55:26.404Z,97329.81
2022-12-31T03:56:28.343Z,97335.97
2022-12-31T03:57:30.451Z,97335.16
2022-12-31T03:58:32.310Z,97328.38
2022-12-31T03:59:34.487Z,97321.56
2022-12-31T04:00:36.566Z,97334.34
2022-12-31T04:01:38.546Z,97339.38
2022-12-31T04:02:40.775Z,97341.31
2022-12-31T04:03:42.623Z,97340.50
2022-12-31T04:04:44.457Z,97343.09
2022-12-31T04:05:52.139Z,97338.09
2022-12-31T04:06:54.074Z,97344.22
2022-12-31T04:07:56.775Z,97340.69
2022-12-31T04:08:58.625Z,97344.22
2022-12-31T04:10:00.485Z,97346.81
2022-12-31T04:11:02.280Z,97345.22
2022-12-31T04:12:04.280Z,97346.81
2022-12-31T04:13:06.222Z,97351.03
2022-12-31T04:14:08.105Z,97348.75
2022-12-31T04:15:10.853Z,97355.22
2022-12-31T04:16:12.748Z,97358.78
2022-12-31T04:17:14.531Z,97358.94
2022-12-31T04:18:16.367Z,97366.84
2022-12-31T04:19:18.996Z,97373.81
2022-12-31T04:20:20.882Z,97365.22
2022-12-31T04:21:22.733Z,97362.47
2022-12-31T04:22:24.623Z,97359.72
2022-12-31T04:23:26.427Z,97356.34
2022-12-31T04:24:30.010Z,97360.72
2022-12-31T04:25:31.921Z,97374.47
2022-12-31T04:26:33.794Z,97372.84
2022-12-31T04:27:35.726Z,97374.63
2022-12-31T04:28:37.598Z,97379.66
2022-12-31T04:29:39.968Z,97368.19
2022-12-31T04:30:41.765Z,97368.03
2022-12-31T04:31:43.605Z,97367.03
2022-12-31T04:32:45.537Z,97368.19
2022-12-31T04:33:47.422Z,97370.78
2022-12-31T04:34:49.261Z,97372.41
2022-12-31T04:35:51.063Z,97372.41
2022-12-31T04:36:53.031Z,97367.22
2022-12-31T04:37:56.087Z,97369.47
2022-12-31T04:38:57.991Z,97363.66
2022-12-31T04:40:05.490Z,97375.66
2022-12-31T04:41:17.577Z,97384.22
2022-12-31T04:42:19.461Z,97377.91
2022-12-31T04:43:21.238Z,97373.38
2022-12-31T04:44:23.142Z,97377.41
2022-12-31T04:45:24.922Z,97381.78
2022-12-31T04:46:31.944Z,97382.44
2022-12-31T04:47:33.741Z,97375.16
2022-12-31T04:48:35.612Z,97386.31
2022-12-31T04:49:37.436Z,97388.09
2022-12-31T04:50:39.249Z,97390.69
2022-12-31T04:51:41.136Z,97395.88
2022-12-31T04:52:43.236Z,97383.88
2022-12-31T04:53:45.173Z,97379.19
2022-12-31T04:54:48.046Z,97393.94
2022-12-31T04:55:50.132Z,97397.34
2022-12-31T04:56:52.177Z,97387.97
2022-12-31T04:57:53.974Z,97381.78
2022-12-31T04:58:56.220Z,97390.34
2022-12-31T04:59:58.007Z,97380.19
2022-12-31T05:01:00.212Z,97378.53
2022-12-31T05:02:02.281Z,97390.53
2022-12-31T05:03:04.355Z,97379.19
2022-12-31T05:04:06.477Z,97381.78
2022-12-31T05:05:08.538Z,97390.34
2022-12-31T05:06:17.854Z,97383.41
2022-12-31T05:07:19.716Z,97391.00
2022-12-31T05:08:21.727Z,97395.88
2022-12-31T05:09:24.405Z,97380.19
2022-12-31T05:10:26.273Z,97388.91
2022-12-31T05:11:28.280Z,97390.69
2022-12-31T05:12:30.230Z,97388.91
2022-12-31T05:13:33.488Z,97390.53
2022-12-31T05:14:35.629Z,97387.78
2022-12-31T05:15:37.459Z,97390.06
2022-12-31T05:16:40.092Z,97404.66
2022-12-31T05:17:41.864Z,97404.66
2022-12-31T05:18:43.658Z,97390.69
2022-12-31T05:19:45.461Z,97394.94
2022-12-31T05:20:47.895Z,97405.94
2022-12-31T05:22:11.063Z,97387.63
2022-12-31T05:23:13.342Z,97392.78
2022-12-31T05:24:15.270Z,97398.97
2022-12-31T05:25:17.307Z,97404.94
2022-12-31T05:26:19.131Z,97412.06
2022-12-31T05:27:21.117Z,97409.50
2022-12-31T05:28:23.026Z,97385.34
2022-12-31T05:29:24.878Z,97387.94
2022-12-31T05:30:26.792Z,97397.19
2022-12-31T05:31:28.661Z,97400.56
2022-12-31T05:32:30.815Z,97396.69
2022-12-31T05:33:32.780Z,97395.06
2022-12-31T05:34:34.579Z,97392.97
2022-12-31T05:35:37.154Z,97386.63
2022-12-31T05:36:38.963Z,97383.25
2022-12-31T05:37:40.996Z,97393.63
2022-12-31T05:38:42.871Z,97399.59
2022-12-31T05:39:44.790Z,97383.25
2022-12-31T05:40:46.635Z,97381.47
2022-12-31T05:41:48.436Z,97377.88
2022-12-31T05:42:51.029Z,97386.63
2022-12-31T05:43:54.134Z,97391.19
2022-12-31T05:44:55.963Z,97377.88
2022-12-31T05:46:00.264Z,97382.75
2022-12-31T05:47:02.228Z,97388.06
2022-12-31T05:48:04.292Z,97395.38
2022-12-31T05:49:06.072Z,97384.03
2022-12-31T05:50:09.254Z,97390.00
2022-12-31T05:51:11.053Z,97382.22
2022-12-31T05:52:12.941Z,97396.19
2022-12-31T05:53:14.777Z,97399.75
2022-12-31T05:54:16.607Z,97398.28
2022-12-31T05:55:18.615Z,97401.69
2022-12-31T05:56:20.883Z,97408.66
2022-12-31T05:57:22.786Z,97401.88
2022-12-31T05:58:24.691Z,97406.06
2022-12-31T05:59:26.587Z,97413.69
2022-12-31T06:00:28.455Z,97411.91
2022-12-31T06:01:30.240Z,97407.50
2022-12-31T06:02:32.176Z,97426.50
2022-12-31T06:03:35.197Z,97432.00
2022-12-31T06:04:37.014Z,97440.75
2022-12-31T06:05:42.973Z,97422.63
2022-12-31T06:06:46.404Z,97404.47
2022-12-31T06:07:48.180Z,97432.97
2022-12-31T06:08:50.564Z,97441.88
2022-12-31T06:09:52.432Z,97444.66
2022-12-31T06:10:54.228Z,97445.47
2022-12-31T06:11:55.982Z,97435.72
2022-12-31T06:12:57.885Z,97429.75
2022-12-31T06:13:59.656Z,97434.94
2022-12-31T06:15:01.683Z,97441.72
2022-12-31T06:16:07.657Z,97455.66
2022-12-31T06:17:09.563Z,97447.06
2022-12-31T06:18:11.373Z,97450.50
2022-12-31T06:19:13.154Z,97452.91
2022-12-31T06:20:14.992Z,97448.53
2022-12-31T06:21:21.285Z,97449.50
2022-12-31T06:22:23.099Z,97436.03
2022-12-31T06:23:25.078Z,97443.97
2022-12-31T06:24:26.912Z,97446.75
2022-12-31T06:25:28.875Z,97452.09
2022-12-31T06:26:30.781Z,97448.84
2022-12-31T06:27:32.571Z,97436.69
2022-12-31T06:28:34.445Z,97434.75
2022-12-31T06:29:36.279Z,97451.59
2022-12-31T06:30:38.152Z,97446.41
2022-12-31T06:31:40.017Z,97436.84
2022-12-31T06:32:42.404Z,97442.88
2022-12-31T06:33:44.306Z,97443.03
2022-12-31T06:34:46.118Z,97443.66
2022-12-31T06:35:49.204Z,97437.50
2022-12-31T06:36:51.107Z,97430.38
2022-12-31T06:37:52.974Z,97437.03
2022-12-31T06:38:55.887Z,97448.22
2022-12-31T06:39:57.687Z,97458.88
2022-12-31T06:41:04.195Z,97450.16
2022-12-31T06:42:06.324Z,97443.03
2022-12-31T06:43:08.103Z,97439.28
2022-12-31T06:44:09.987Z,97445.91
2022-12-31T06:45:11.975Z,97449.66
2022-12-31T06:46:15.110Z,97453.06
2022-12-31T06:47:16.983Z,97438.34
2022-12-31T06:48:19.017Z,97434.09
2022-12-31T06:49:20.853Z,97440.28
2022-12-31T06:50:22.663Z,97440.59
2022-12-31T06:51:25.194Z,97437.03
2022-12-31T06:52:27.000Z,97438.78
2022-12-31T06:53:28.764Z,97436.19
2022-12-31T06:54:30.639Z,97436.19
2022-12-31T06:55:33.008Z,97431.66
2022-12-31T06:56:35.764Z,97430.06
2022-12-31T06:57:37.740Z,97436.03
2022-12-31T06:58:39.698Z,97432.50
2022-12-31T06:59:41.616Z,97431.66
2022-12-31T07:00:50.743Z,97432.50
2022-12-31T07:02:00.076Z,97442.69
2022-12-31T07:03:02.078Z,97447.72
2022-12-31T07:04:03.881Z,97450.78
2022-12-31T07:05:06.721Z,97456.63
2022-12-31T07:06:16.801Z,97438.97
2022-12-31T07:07:26.665Z,97450.63
2022-12-31T07:08:57.868Z,97450.78
2022-12-31T07:10:12.536Z,97455.97
2022-12-31T07:11:29.258Z,97437.97
2022-12-31T07:12:31.028Z,97458.25
2022-12-31T07:13:35.729Z,97463.59
2022-12-31T07:14:40.737Z,97458.41
2022-12-31T07:15:58.277Z,97459.38
2022-12-31T07:17:00.014Z,97450.50
2022-12-31T07:18:20.395Z,97459.88
2022-12-31T07:19:25.067Z,97461.16
2022-12-31T07:20:27.091Z,97473.16
2022-12-31T07:21:36.145Z,97479.97
2022-12-31T07:22:38.040Z,97461.66
2022-12-31T07:23:40.495Z,97460.03
2022-12-31T07:24:43.295Z,97459.06
2022-12-31T07:25:50.334Z,97470.88
2022-12-31T07:27:01.551Z,97474.47
2022-12-31T07:28:03.844Z,97465.84
2022-12-31T07:29:12.316Z,97464.09
2022-12-31T07:30:21.360Z,97471.53
2022-12-31T07:31:23.190Z,97462.78
2022-12-31T07:32:35.280Z,97484.19
2022-12-31T07:33:49.498Z,97478.81
2022-12-31T07:34:51.250Z,97460.66
2022-12-31T07:36:01.856Z,97484.84
2022-12-31T07:37:08.099Z,97487.44
2022-12-31T07:38:15.743Z,97474.28
2022-12-31T07:39:23.796Z,97485.28
2022-12-31T07:40:44.127Z,97486.13
2022-12-31T07:41:48.787Z,97489.03
2022-12-31T07:43:09.410Z,97491.47
2022-12-31T07:44:29.924Z,97484.50
2022-12-31T07:45:57.753Z,97477.34
2022-12-31T07:47:02.515Z,97491.78
2022-12-31T07:48:14.586Z,97487.88
2022-12-31T07:49:16.631Z,97479.94
2022-12-31T07:50:19.099Z,97478.00
2022-12-31T07:51:22.328Z,97478.00
2022-12-31T07:52:24.522Z,97492.09
2022-12-31T07:53:27.077Z,97483.84
2022-12-31T07:54:28.939Z,97481.25
2022-12-31T07:55:30.806Z,97497.59
2022-12-31T07:56:32.758Z,97502.31
2022-12-31T07:57:37.241Z,97502.81
2022-12-31T07:59:02.777Z,97504.25
2022-12-31T08:00:08.297Z,97496.13
2022-12-31T08:01:12.632Z,97501.31
2022-12-31T08:02:38.545Z,97506.72
2022-12-31T08:03:50.948Z,97514.81
2022-12-31T08:05:11.595Z,97512.38
2022-12-31T08:06:25.310Z,97506.22
2022-12-31T08:07:35.841Z,97507.81
2022-12-31T08:08:52.788Z,97507.66
2022-12-31T08:10:17.710Z,97527.47
2022-12-31T08:11:31.185Z,97530.06
2022-12-31T08:12:34.395Z,97528.75
2022-12-31T08:13:36.267Z,97530.19
2022-12-31T08:14:43.778Z,97521.44
2022-12-31T08:15:45.665Z,97523.38
2022-12-31T08:16:47.731Z,97524.38
2022-12-31T08:17:50.078Z,97533.75
2022-12-31T08:18:52.146Z,97542.19
2022-12-31T08:19:54.067Z,97533.94
2022-12-31T08:20:55.886Z,97538.28
2022-12-31T08:22:16.199Z,97540.91
2022-12-31T08:23:27.268Z,97532.47
2022-12-31T08:24:30.207Z,97538.63
2022-12-31T08:25:55.059Z,97533.28
2022-12-31T08:27:21.360Z,97535.25
2022-12-31T08:28:39.235Z,97550.81
2022-12-31T08:29:47.674Z,97536.19
2022-12-31T08:30:55.901Z,97532.81
2022-12-31T08:31:57.626Z,97526.97
2022-12-31T08:33:11.595Z,97532.81
2022-12-31T08:34:19.314Z,97538.94
2022-12-31T08:35:39.751Z,97546.44
2022-12-31T08:37:00.356Z,97548.03
2022-12-31T08:38:20.948Z,97549.81
2022-12-31T08:39:48.452Z,97553.22
2022-12-31T08:41:00.299Z,97547.72
2022-12-31T08:42:04.319Z,97548.38
2022-12-31T08:43:18.588Z,97554.34
2022-12-31T08:44:33.381Z,97552.56
2022-12-31T08:45:39.450Z,97556.78
2022-12-31T08:46:56.738Z,97554.19
2022-12-31T08:48:10.745Z,97558.25
2022-12-31T08:49:14.979Z,97558.25
2022-12-31T08:50:18.405Z,97558.88
2022-12-31T08:51:21.931Z,97556.94
2022-12-31T08:52:24.953Z,97561.19
2022-12-31T08:53:26.911Z,97567.16
2022-12-31T08:54:29.023Z,97569.75
2022-12-31T08:55:31.023Z,97580.16
2022-12-31T08:56:56.070Z,97580.94
2022-12-31T08:58:00.965Z,97567.00
2022-12-31T08:59:21.271Z,97567.31
2022-12-31T09:00:23.387Z,97569.91
2022-12-31T09:01:28.455Z,97563.28
2022-12-31T09:02:49.034Z,97569.44
2022-12-31T09:03:50.853Z,97570.25
2022-12-31T09:04:55.407Z,97569.28
2022-12-31T09:06:05.715Z,97571.88
2022-12-31T09:07:09.755Z,97571.06
2022-12-31T09:08:17.858Z,97574.63
2022-12-31T09:09:35.075Z,97581.75
2022-12-31T09:10:52.300Z,97580.94
2022-12-31T09:12:00.064Z,97573.97
2022-12-31T09:13:20.803Z,97565.53
2022-12-31T09:14:43.425Z,97563.78
2022-12-31T09:15:53.065Z,97564.56
2022-12-31T09:17:13.437Z,97559.38
2022-12-31T09:18:15.544Z,97553.56
2022-12-31T09:19:17.341Z,97567.19
2022-12-31T09:20:25.257Z,97566.19
2022-12-31T09:21:27.269Z,97570.41
2022-12-31T09:22:29.314Z,97573.66
2022-12-31T09:23:31.293Z,97564.72
2022-12-31T09:24:33.224Z,97568.13
2022-12-31T09:25:41.631Z,97567.81
2022-12-31T09:27:09.785Z,97564.22
2022-12-31T09:28:18.169Z,97559.53
2022-12-31T09:29:19.942Z,97557.59
2022-12-31T09:30:22.052Z,97551.09
2022-12-31T09:31:47.286Z,97562.47
2022-12-31T09:33:08.429Z,97556.28
2022-12-31T09:34:17.951Z,97555.31
2022-12-31T09:35:30.449Z,97547.19
2022-12-31T09:36:36.971Z,97536.00
2022-12-31T09:37:38.792Z,97547.03
2022-12-31T09:38:40.604Z,97558.22
2022-12-31T09:39:43.838Z,97558.41
2022-12-31T09:40:48.796Z,97542.81
2022-12-31T09:41:53.665Z,97549.47
2022-12-31T09:42:59.475Z,97542.47
2022-12-31T09:44:10.513Z,97535.50
2022-12-31T09:45:24.457Z,97524.16
2022-12-31T09:46:30.616Z,97530.66
2022-12-31T09:47:54.957Z,97530.00
2022-12-31T09:49:15.312Z,97533.25
2022-12-31T09:50:42.597Z,97528.06
2022-12-31T09:51:50.403Z,97533.25
2022-12-31T09:52:58.345Z,97534.03
2022-12-31T09:54:09.417Z,97537.28
2022-12-31T09:55:29.837Z,97552.56
2022-12-31T09:56:34.667Z,97552.19
2022-12-31T09:57:41.657Z,97550.88
2022-12-31T09:58:58.414Z,97554.28
2022-12-31T10:00:00.314Z,97559.47
2022-12-31T10:01:23.832Z,97562.28
2022-12-31T10:02:43.944Z,97553.50
2022-12-31T10:03:51.658Z,97563.56
2022-12-31T10:05:01.764Z,97555.94
2022-12-31T10:06:06.283Z,97553.50
2022-12-31T10:07:25.335Z,97540.50
2022-12-31T10:08:36.298Z,97539.88
2022-12-31T10:09:47.533Z,97539.69
2022-12-31T10:10:58.189Z,97543.09
2022-12-31T10:12:18.928Z,97536.75
2022-12-31T10:13:34.861Z,97532.84
2022-12-31T10:14:47.758Z,97535.94
2022-12-31T10:15:55.932Z,97532.38
2022-12-31T10:17:00.817Z,97537.41
2022-12-31T10:18:14.677Z,97533.03
2022-12-31T10:19:16.403Z,97536.56
2022-12-31T10:20:27.368Z,97540.66
2022-12-31T10:21:29.263Z,97536.09
2022-12-31T10:22:49.851Z,97533.31
2022-12-31T10:24:10.318Z,97529.09
2022-12-31T10:25:21.497Z,97534.47
2022-12-31T10:26:53.525Z,97535.91
2022-12-31T10:28:00.561Z,97529.91
2022-12-31T10:29:08.668Z,97520.31
2022-12-31T10:30:17.595Z,97524.41
2022-12-31T10:31:37.847Z,97518.06
2022-12-31T10:32:58.108Z,97513.34
2022-12-31T10:34:18.456Z,97518.00
2022-12-31T10:35:23.256Z,97524.66
2022-12-31T10:36:45.270Z,97531.66
2022-12-31T10:37:56.020Z,97538.63
2022-12-31T10:39:06.193Z,97541.41
2022-12-31T10:40:20.292Z,97535.03
2022-12-31T10:41:25.247Z,97530.66
2022-12-31T10:42:39.247Z,97534.72
2022-12-31T10:43:59.927Z,97540.72
2022-12-31T10:45:10.910Z,97527.09
2022-12-31T10:46:31.512Z,97521.09
2022-12-31T10:47:52.226Z,97522.84
2022-12-31T10:49:26.553Z,97537.31
2022-12-31T10:50:31.213Z,97534.09
2022-12-31T10:51:51.804Z,97531.66
2022-12-31T10:53:03.227Z,97528.25
2022-12-31T10:54:14.348Z,97524.19
2022-12-31T10:55:32.567Z,97531.31
2022-12-31T10:56:48.011Z,97529.72
2022-12-31T10:57:49.753Z,97525.31
2022-12-31T10:59:03.208Z,97523.38
2022-12-31T11:00:12.797Z,97523.06
2022-12-31T11:01:20.060Z,97521.91
2022-12-31T11:02:40.441Z,97519.94
2022-12-31T11:04:01.396Z,97517.19
2022-12-31T11:05:22.229Z,97522.22
2022-12-31T11:06:36.044Z,97522.22
2022-12-31T11:07:37.826Z,97516.03
2022-12-31T11:08:59.565Z,97514.41
2022-12-31T11:10:04.493Z,97517.19
2022-12-31T11:11:13.190Z,97522.03
2022-12-31T11:12:27.919Z,97509.66
2022-12-31T11:13:29.792Z,97502.34
2022-12-31T11:14:50.223Z,97507.22
2022-12-31T11:16:01.153Z,97499.22
2022-12-31T11:17:09.977Z,97504.91
2022-12-31T11:18:27.649Z,97510.09
2022-12-31T11:19:36.821Z,97511.91
2022-12-31T11:21:04.662Z,97508.50
2022-12-31T11:22:18.806Z,97513.34
2022-12-31T11:23:56.291Z,97501.97
2022-12-31T11:25:06.545Z,97502.63
2022-12-31T11:26:08.357Z,97501.78
2022-12-31T11:27:10.178Z,97501.28
2022-12-31T11:28:14.713Z,97503.69
2022-12-31T11:29:24.884Z,97507.78
2022-12-31T11:30:29.431Z,97504.53
2022-12-31T11:31:37.129Z,97502.75
2022-12-31T11:32:38.903Z,97494.78
2022-12-31T11:33:59.909Z,97490.38
2022-12-31T11:35:28.033Z,97491.81
2022-12-31T11:36:55.859Z,97485.50
2022-12-31T11:38:16.389Z,97482.53
2022-12-31T11:39:31.424Z,97486.13
2022-12-31T11:40:37.650Z,97489.84
2022-12-31T11:41:49.975Z,97483.69
2022-12-31T11:42:57.618Z,97483.69
2022-12-31T11:44:02.244Z,97493.28
2022-12-31T11:45:33.441Z,97485.50
2022-12-31T11:46:35.479Z,97497.31
2022-12-31T11:48:29.256Z,97495.34
2022-12-31T11:49:19.558Z,97490.78
2022-12-31T11:50:24.174Z,97486.41
2022-12-31T11:51:25.957Z,97487.03
2022-12-31T11:52:34.157Z,97484.44
2022-12-31T11:53:51.990Z,97485.25
2022-12-31T11:55:02.784Z,97476.47
2022-12-31T11:56:07.730Z,97482.47
2022-12-31T11:57:27.493Z,97487.66
2022-12-31T11:58:30.172Z,97489.31
2022-12-31T11:59:32.147Z,97487.50
2022-12-31T12:00:34.627Z,97482.31
2022-12-31T12:01:54.619Z,97482.31
2022-12-31T12:03:00.099Z,97482.13
2022-12-31T12:04:02.247Z,97478.72
2022-12-31T12:05:11.075Z,97475.13
2022-12-31T12:06:14.564Z,97481.31
2022-12-31T12:07:16.672Z,97473.19
2022-12-31T12:08:21.026Z,97470.56
2022-12-31T12:09:28.432Z,97463.75
2022-12-31T12:10:36.392Z,97467.19
2022-12-31T12:11:40.126Z,97469.56
2022-12-31T12:12:42.712Z,97463.56
2022-12-31T12:13:45.672Z,97468.66
2022-12-31T12:14:52.019Z,97467.66
2022-12-31T12:15:55.871Z,97465.69
2022-12-31T12:17:04.303Z,97465.69
2022-12-31T12:18:08.576Z,97468.09
2022-12-31T12:19:17.084Z,97465.50
2022-12-31T12:20:21.802Z,97462.09
2022-12-31T12:21:25.531Z,97464.72
2022-12-31T12:22:28.407Z,97464.72
2022-12-31T12:23:30.242Z,97459.50
2022-12-31T12:24:32.142Z,97458.50
2022-12-31T12:25:41.024Z,97457.72
2022-12-31T12:26:44.714Z,97464.53
2022-12-31T12:27:46.663Z,97457.38
2022-12-31T12:28:48.467Z,97457.19
2022-12-31T12:29:50.496Z,97452.81
2022-12-31T12:30:57.081Z,97455.56
2022-12-31T12:32:03.500Z,97454.56
2022-12-31T12:33:05.479Z,97456.22
2022-12-31T12:34:21.408Z,97455.41
2022-12-31T12:35:31.153Z,97450.84
2022-12-31T12:36:33.704Z,97448.72
2022-12-31T12:37:36.341Z,97451.94
2022-12-31T12:38:38.533Z,97458.56
2022-12-31T12:39:40.701Z,97448.81
2022-12-31T12:40:43.707Z,97447.81
2022-12-31T12:41:45.496Z,97445.84
2022-12-31T12:42:52.020Z,97448.25
2022-12-31T12:44:04.124Z,97446.31
2022-12-31T12:45:15.529Z,97449.69
2022-12-31T12:46:20.337Z,97454.75
2022-12-31T12:47:23.245Z,97441.56
2022-12-31T12:48:41.798Z,97444.00
2022-12-31T12:49:47.703Z,97439.22
2022-12-31T12:50:50.118Z,97442.28
2022-12-31T12:52:10.979Z,97441.78
2022-12-31T12:53:31.577Z,97444.81
2022-12-31T12:54:37.174Z,97439.59
2022-12-31T12:55:59.261Z,97444.81
2022-12-31T12:57:20.682Z,97444.47
2022-12-31T12:58:41.085Z,97434.31
2022-12-31T12:59:57.785Z,97438.38
2022-12-31T13:01:10.028Z,97439.63
2022-12-31T13:02:21.330Z,97438.47
2022-12-31T13:04:07.425Z,97444.56
2022-12-31T13:05:03.929Z,97447.53
2022-12-31T13:06:08.540Z,97439.28